Terminal Aerodrome Forecast
Issued by NWS

Home | Current Version | Previous Version | Text Only | Print | Product List | Glossary Off
Versions: 1 2 3 4 5 6 7 8 9 10 11 12 13 14

000
FTUS43 KGRB 202033 AAA
TAFMTW
TAF AMD
KMTW 202033Z 2021/2118 27012KT P6SM OVC011
     FM210000 28013KT P6SM OVC012
     FM210500 31013KT P6SM BKN018 OVC070
     FM211300 32013KT P6SM BKN025
     FM211600 34015G22KT P6SM BKN035=

USA.gov is the U.S. government's official web portal to all federal, state and local government web resources and services.